Time;durP1;ratioP1;P1;durP2;ratioP2;P2;SDS_P1;SDS_P2;PMS_P1;PMS_P2;Temp;Humidity;BMP_temperature;BMP_pressure;BME280_temperature;BME280_humidity;BME280_pressure;Samples;Min_cycle;Max_cycle;Signal;HPM_P1;HPM_P2
2022/08/13 00:00:59;;;;;;;3.57;1.83;;;;;;;20.41;68.87;101473.28;4995086;28;20465;-68
2022/08/13 00:03:27;;;;;;;4.23;1.60;;;;;;;20.36;69.66;101459.75;4995087;28;20428;-70
2022/08/13 00:05:55;;;;;;;4.03;2.03;;;;;;;20.29;70.22;101468.59;4994994;28;20472;-69
2022/08/13 00:08:26;;;;;;;7.40;2.33;;;;;;;20.28;70.36;101475.25;4995037;28;20445;-69
2022/08/13 00:10:53;;;;;;;4.00;1.70;;;;;;;20.22;71.42;101470.31;4994030;28;20492;-68
2022/08/13 00:13:19;;;;;;;4.40;2.13;;;;;;;20.16;70.86;101470.53;4995777;28;20456;-70
2022/08/13 00:15:47;;;;;;;3.87;1.80;;;;;;;20.11;70.50;101469.97;4994491;28;20448;-68
2022/08/13 00:18:16;;;;;;;4.87;2.00;;;;;;;20.04;70.92;101464.25;4994685;28;20481;-69
2022/08/13 00:20:45;;;;;;;3.27;1.67;;;;;;;19.99;71.67;101465.28;4994651;28;20468;-68
2022/08/13 00:23:14;;;;;;;2.80;1.57;;;;;;;19.95;71.52;101467.09;4994665;28;20804;-68
2022/08/13 00:25:43;;;;;;;3.63;1.77;;;;;;;19.91;71.31;101460.69;4994565;28;20449;-69
2022/08/13 00:28:11;;;;;;;4.27;2.00;;;;;;;19.85;71.65;101459.31;4994660;28;20437;-69
2022/08/13 00:30:38;;;;;;;3.23;1.83;;;;;;;19.82;71.81;101451.72;4994570;28;20868;-69
2022/08/13 00:33:08;;;;;;;5.30;2.27;;;;;;;19.79;72.59;101447.75;4994436;28;20448;-69
2022/08/13 00:35:36;;;;;;;4.70;1.70;;;;;;;19.77;72.53;101444.50;4994558;28;20433;-68
2022/08/13 00:38:05;;;;;;;4.67;2.00;;;;;;;19.72;72.89;101446.69;4994076;28;20943;-68
2022/08/13 00:40:32;;;;;;;3.37;1.73;;;;;;;19.71;72.86;101448.66;4993954;28;21867;-69
2022/08/13 00:43:02;;;;;;;4.40;1.80;;;;;;;19.65;73.26;101445.28;4994322;28;20464;-69
2022/08/13 00:45:30;;;;;;;4.57;2.33;;;;;;;19.63;73.25;101438.56;4993997;28;20532;-70
2022/08/13 00:50:42;;;;;;;4.30;2.10;;;;;;;19.54;73.28;101443.31;4993935;28;20459;-72
2022/08/13 00:53:18;;;;;;;3.90;1.90;;;;;;;19.51;73.35;101435.75;4994164;28;20544;-68
2022/08/13 00:55:48;;;;;;;3.20;1.70;;;;;;;19.44;73.63;101436.31;4993893;28;20439;-68
2022/08/13 00:58:17;;;;;;;3.20;1.83;;;;;;;19.39;73.24;101445.59;4994071;28;20469;-67
2022/08/13 01:00:47;;;;;;;4.13;2.20;;;;;;;19.38;73.42;101446.69;4994108;28;20877;-67
2022/08/13 01:03:14;;;;;;;3.93;1.60;;;;;;;19.33;73.89;101446.91;4993790;28;20906;-67
2022/08/13 01:05:43;;;;;;;4.17;2.17;;;;;;;19.30;73.72;101444.88;4993617;28;20452;-68
2022/08/13 01:08:10;;;;;;;4.50;2.37;;;;;;;19.24;74.26;101431.66;4994004;28;20473;-67
2022/08/13 01:10:38;;;;;;;3.43;1.47;;;;;;;19.23;73.82;101436.38;4993685;28;20480;-67
2022/08/13 01:13:09;;;;;;;3.40;1.53;;;;;;;19.22;74.07;101434.78;4994065;28;20440;-67
2022/08/13 01:15:38;;;;;;;5.73;2.00;;;;;;;19.18;74.54;101428.34;4993992;28;20434;-68
2022/08/13 01:18:06;;;;;;;3.87;1.70;;;;;;;19.15;74.96;101423.53;4993846;28;20481;-67
2022/08/13 01:20:33;;;;;;;3.97;1.73;;;;;;;19.08;74.29;101423.25;4993833;28;20480;-67
2022/08/13 01:23:02;;;;;;;4.13;2.20;;;;;;;19.02;74.75;101422.66;4998046;28;20556;-67
2022/08/13 01:25:30;;;;;;;3.63;1.80;;;;;;;19.00;74.56;101416.72;4997885;28;20445;-73
2022/08/13 01:27:56;;;;;;;4.20;2.00;;;;;;;18.96;74.70;101407.56;4998057;28;20820;-68
2022/08/13 01:30:24;;;;;;;7.17;2.73;;;;;;;18.94;74.90;101407.06;4997833;28;20468;-69
2022/08/13 01:32:51;;;;;;;5.37;3.27;;;;;;;18.94;74.68;101411.78;4997437;28;20942;-67
2022/08/13 01:35:20;;;;;;;3.90;2.03;;;;;;;18.90;75.06;101415.22;4997868;28;20452;-68
2022/08/13 01:37:53;;;;;;;5.10;2.33;;;;;;;18.88;75.19;101413.94;4997678;28;20861;-67
2022/08/13 01:40:21;;;;;;;3.93;1.87;;;;;;;18.87;75.67;101406.84;4997633;28;20601;-69
2022/08/13 01:42:48;;;;;;;4.43;2.00;;;;;;;18.81;75.88;101408.16;4997672;28;20449;-68
2022/08/13 01:45:15;;;;;;;3.43;1.80;;;;;;;18.81;76.47;101414.44;4997566;28;20538;-67
2022/08/13 01:50:30;;;;;;;3.40;1.83;;;;;;;18.78;76.91;101414.34;4997247;28;20778;-69
2022/08/13 01:53:01;;;;;;;3.93;2.20;;;;;;;18.76;76.85;101403.69;4998099;28;20833;-68
2022/08/13 01:55:31;;;;;;;4.73;2.20;;;;;;;18.67;77.16;101409.22;4997427;28;20433;-68
2022/08/13 01:57:58;;;;;;;4.87;2.03;;;;;;;18.64;77.14;101406.38;4997379;28;20457;-68
2022/08/13 02:00:24;;;;;;;5.50;1.97;;;;;;;18.59;77.15;101406.53;4997328;28;20444;-69
2022/08/13 02:02:51;;;;;;;4.63;2.37;;;;;;;18.58;77.44;101407.69;4997321;28;20452;-67
2022/08/13 02:05:17;;;;;;;4.50;2.10;;;;;;;18.58;77.45;101408.47;4997246;28;20448;-68
2022/08/13 02:07:44;;;;;;;6.70;1.93;;;;;;;18.58;77.65;101411.22;4997195;28;20456;-69
2022/08/13 02:10:11;;;;;;;5.43;2.80;;;;;;;18.56;77.82;101404.50;4997215;28;20476;-68
2022/08/13 02:12:40;;;;;;;4.10;1.80;;;;;;;18.55;77.93;101405.59;4996654;28;20479;-68
2022/08/13 02:15:09;;;;;;;4.90;2.47;;;;;;;18.53;77.85;101411.44;4996732;28;20437;-68
2022/08/13 02:17:38;;;;;;;5.50;2.37;;;;;;;18.48;78.14;101410.84;4996987;28;20448;-68
2022/08/13 02:20:05;;;;;;;4.90;2.00;;;;;;;18.44;78.42;101409.91;4996633;28;21013;-68
2022/08/13 02:22:33;;;;;;;5.33;2.43;;;;;;;18.43;78.29;101413.78;4996611;28;20449;-70
2022/08/13 02:25:01;;;;;;;4.40;2.07;;;;;;;18.38;78.67;101412.84;4996948;28;20445;-68
2022/08/13 02:27:28;;;;;;;3.50;1.77;;;;;;;18.32;78.92;101416.91;4996798;28;20440;-68
2022/08/13 02:29:59;;;;;;;4.83;2.57;;;;;;;18.30;79.24;101413.69;4996456;28;20997;-68
2022/08/13 02:32:26;;;;;;;7.20;2.50;;;;;;;18.24;79.36;101408.72;4995941;28;20551;-69
2022/08/13 02:34:54;;;;;;;5.33;2.53;;;;;;;18.27;79.22;101414.34;4996681;28;20452;-69
2022/08/13 02:37:22;;;;;;;5.57;2.33;;;;;;;18.27;78.80;101399.84;4996667;28;20453;-70
2022/08/13 02:39:49;;;;;;;5.03;2.43;;;;;;;18.25;78.87;101399.38;4996495;28;20492;-68
2022/08/13 02:42:15;;;;;;;7.50;2.33;;;;;;;18.26;78.62;101401.00;4996484;28;20492;-68
2022/08/13 02:44:44;;;;;;;5.80;2.93;;;;;;;18.23;78.97;101396.16;4996504;28;20449;-68
2022/08/13 02:47:13;;;;;;;4.20;2.50;;;;;;;18.25;79.15;101402.13;4996502;28;20455;-69
2022/08/13 02:49:40;;;;;;;4.87;2.40;;;;;;;18.24;79.46;101404.06;4996333;28;20463;-68
2022/08/13 02:52:08;;;;;;;3.93;2.00;;;;;;;18.21;79.43;101396.50;4996229;28;20524;-68
2022/08/13 02:54:39;;;;;;;6.13;2.27;;;;;;;18.22;79.63;101398.09;4996315;28;20441;-68
2022/08/13 02:57:06;;;;;;;5.77;3.20;;;;;;;18.17;79.80;101394.75;4996002;28;20942;-68
2022/08/13 02:59:32;;;;;;;4.53;2.57;;;;;;;18.10;79.54;101393.31;4996130;28;20547;-68
2022/08/13 03:02:00;;;;;;;3.93;2.43;;;;;;;18.13;79.34;101397.34;4996156;28;20465;-70
2022/08/13 03:04:28;;;;;;;4.00;2.17;;;;;;;18.12;79.12;101398.50;4995858;28;20818;-70
2022/08/13 03:06:55;;;;;;;6.83;2.07;;;;;;;18.07;79.82;101388.53;4996131;28;20452;-68
2022/08/13 03:09:22;;;;;;;4.37;2.10;;;;;;;18.06;79.79;101389.66;4996064;28;20524;-70
2022/08/13 03:11:49;;;;;;;4.97;2.60;;;;;;;18.10;79.65;101398.00;4995668;28;20525;-68
2022/08/13 03:14:16;;;;;;;4.43;2.43;;;;;;;18.04;79.99;101391.13;4996003;28;20444;-68
2022/08/13 03:16:43;;;;;;;4.50;2.13;;;;;;;18.02;80.30;101390.66;4995963;28;20472;-68
2022/08/13 03:19:09;;;;;;;5.47;2.40;;;;;;;17.99;80.20;101394.84;4995778;28;20495;-68
2022/08/13 03:21:41;;;;;;;4.30;2.17;;;;;;;17.95;80.52;101398.59;4995751;28;20496;-68
2022/08/13 03:24:09;;;;;;;3.83;1.60;;;;;;;17.89;80.93;101396.03;4995564;28;20855;-68
2022/08/13 03:26:36;;;;;;;5.57;2.87;;;;;;;17.92;80.38;101394.56;4995751;28;20445;-69
2022/08/13 03:29:04;;;;;;;4.70;2.33;;;;;;;17.84;81.27;101398.16;4995663;28;20469;-68
2022/08/13 03:31:30;;;;;;;3.80;2.23;;;;;;;17.83;81.34;101396.56;4995244;28;20461;-70
2022/08/13 03:33:58;;;;;;;4.70;2.07;;;;;;;17.83;80.85;101386.38;4995307;28;20445;-68
2022/08/13 03:36:26;;;;;;;5.10;2.30;;;;;;;17.84;80.83;101392.66;4995533;28;20445;-70
2022/08/13 03:38:55;;;;;;;4.80;2.23;;;;;;;17.83;81.27;101389.13;4995300;28;20477;-68
2022/08/13 03:41:22;;;;;;;4.70;2.40;;;;;;;17.80;81.19;101381.59;4995450;28;20531;-70
2022/08/13 03:43:49;;;;;;;4.30;2.30;;;;;;;17.76;81.32;101380.63;4995151;28;20429;-69
2022/08/13 03:46:17;;;;;;;4.17;2.30;;;;;;;17.73;81.39;101388.69;4995098;28;20993;-69
2022/08/13 03:48:44;;;;;;;6.00;2.60;;;;;;;17.72;81.68;101385.13;4995400;28;20476;-69
2022/08/13 03:51:11;;;;;;;10.43;2.37;;;;;;;17.74;81.83;101382.88;4995210;28;20460;-69
2022/08/13 03:53:39;;;;;;;6.40;2.87;;;;;;;17.64;82.32;101378.56;4995107;28;20449;-69
2022/08/13 03:56:09;;;;;;;4.50;2.53;;;;;;;17.64;81.91;101378.56;4994898;28;20939;-68
2022/08/13 03:58:37;;;;;;;5.10;2.83;;;;;;;17.63;81.61;101376.97;4995095;28;20452;-69
2022/08/13 04:01:05;;;;;;;3.87;2.20;;;;;;;17.68;81.93;101380.66;4995068;28;20467;-69
2022/08/13 04:03:36;;;;;;;4.90;2.80;;;;;;;17.66;82.01;101375.47;4994998;28;20456;-70
2022/08/13 04:06:07;;;;;;;4.93;2.70;;;;;;;17.67;81.96;101376.31;4995057;28;20524;-69
2022/08/13 04:08:36;;;;;;;4.20;2.30;;;;;;;17.64;82.57;101372.28;4994972;28;20437;-70
2022/08/13 04:11:04;;;;;;;5.00;2.40;;;;;;;17.63;82.58;101374.22;4994592;28;20477;-70
2022/08/13 04:13:36;;;;;;;7.00;2.87;;;;;;;17.64;82.59;101375.81;4994453;28;20499;-69
2022/08/13 04:16:04;;;;;;;4.83;2.80;;;;;;;17.65;82.44;101374.69;4994886;28;20436;-69
2022/08/13 04:18:35;;;;;;;8.73;2.47;;;;;;;17.68;82.55;101380.66;4994382;28;20964;-69
2022/08/13 04:21:03;;;;;;;4.07;2.33;;;;;;;17.65;82.76;101371.94;4994356;28;20854;-70
2022/08/13 04:23:30;;;;;;;6.10;2.80;;;;;;;17.68;82.91;101384.19;4994608;28;20441;-70
2022/08/13 04:25:58;;;;;;;5.00;2.70;;;;;;;17.66;82.87;101375.47;4994309;28;20938;-69
2022/08/13 04:28:24;;;;;;;4.37;2.70;;;;;;;17.63;82.47;101382.44;4994615;28;20449;-69
2022/08/13 04:30:53;;;;;;;4.73;2.63;;;;;;;17.61;82.71;101378.41;4994434;28;20475;-69
2022/08/13 04:33:19;;;;;;;5.57;3.20;;;;;;;17.62;82.64;101372.63;4994732;28;20500;-70
2022/08/13 04:35:47;;;;;;;4.93;2.17;;;;;;;17.65;82.21;101374.69;4994501;28;20452;-69
2022/08/13 04:38:14;;;;;;;4.90;2.53;;;;;;;17.64;82.72;101370.34;4994366;28;20445;-68
2022/08/13 04:40:46;;;;;;;4.40;2.30;;;;;;;17.67;83.19;101374.38;4994079;28;20484;-68
2022/08/13 04:43:14;;;;;;;5.07;2.23;;;;;;;17.69;83.01;101374.81;4994437;28;20437;-68
2022/08/13 04:45:42;;;;;;;4.10;2.30;;;;;;;17.73;83.28;101374.97;4994313;28;20448;-68
2022/08/13 04:48:12;;;;;;;5.97;2.90;;;;;;;17.67;84.50;101374.38;4994060;28;20956;-68
2022/08/13 04:50:40;;;;;;;5.27;2.40;;;;;;;17.70;84.65;101375.63;4994238;28;20465;-69
2022/08/13 04:53:09;;;;;;;4.20;2.30;;;;;;;17.67;84.77;101371.63;4994245;28;20445;-68
2022/08/13 04:55:37;;;;;;;5.10;2.63;;;;;;;17.74;84.29;101371.94;4993636;28;20438;-69
2022/08/13 04:58:04;;;;;;;5.00;2.60;;;;;;;17.78;84.32;101372.88;4994306;28;20437;-66
2022/08/13 05:00:33;;;;;;;10.73;3.17;;;;;;;17.82;83.90;101381.25;4993722;28;20496;-69
2022/08/13 05:03:10;;;;;;;5.00;2.37;;;;;;;17.86;83.95;101379.44;4994115;28;20905;-74
2022/08/13 05:05:37;;;;;;;4.47;2.53;;;;;;;17.85;84.31;101373.16;4994091;28;20432;-67
2022/08/13 05:08:04;;;;;;;10.83;3.03;;;;;;;17.92;85.58;101378.13;4993816;28;20958;-67
2022/08/13 05:10:31;;;;;;;5.83;2.47;;;;;;;17.90;86.08;101375.72;4993724;28;20507;-69
2022/08/13 05:13:01;;;;;;;5.17;2.97;;;;;;;17.90;85.18;101375.72;4994256;28;20465;-67
2022/08/13 05:15:27;;;;;;;5.50;2.70;;;;;;;17.87;84.75;101367.34;4993970;28;20451;-67
2022/08/13 05:17:54;;;;;;;4.93;3.03;;;;;;;17.84;85.04;101365.25;4993635;28;20444;-67
2022/08/13 05:20:22;;;;;;;5.40;2.60;;;;;;;17.83;85.27;101372.69;4993815;28;20493;-69
2022/08/13 05:22:49;;;;;;;5.60;3.00;;;;;;;17.91;85.40;101368.28;4993644;28;20427;-68
2022/08/13 05:25:15;;;;;;;8.17;2.57;;;;;;;17.96;86.61;101381.00;4993583;28;21008;-67
2022/08/13 05:27:43;;;;;;;5.70;2.70;;;;;;;18.03;88.10;101373.06;4993489;28;20449;-67
2022/08/13 05:30:12;;;;;;;5.47;3.10;;;;;;;18.11;87.83;101377.69;4993532;28;20971;-67
2022/08/13 05:32:39;;;;;;;5.10;2.40;;;;;;;18.19;87.42;101370.53;4993816;28;20515;-68
2022/08/13 05:35:08;;;;;;;4.73;3.23;;;;;;;18.24;87.40;101371.16;4993738;28;20453;-67
2022/08/13 05:37:36;;;;;;;4.83;2.57;;;;;;;18.35;86.72;101372.34;4993712;28;20452;-68
2022/08/13 05:40:05;;;;;;;4.43;2.40;;;;;;;18.45;85.16;101373.09;4993659;28;20524;-68
2022/08/13 05:42:33;;;;;;;8.10;3.10;;;;;;;18.58;85.41;101372.00;4993599;28;20527;-67
2022/08/13 05:45:01;;;;;;;4.73;2.67;;;;;;;18.66;84.93;101374.69;4993682;28;20445;-68
2022/08/13 05:47:28;;;;;;;6.60;2.97;;;;;;;18.74;84.12;101372.25;4993423;28;20459;-68
2022/08/13 05:49:55;;;;;;;6.03;2.57;;;;;;;18.81;84.13;101373.28;4993347;28;20930;-68
2022/08/13 05:52:23;;;;;;;15.10;2.90;;;;;;;18.94;84.06;101365.09;4993632;28;20464;-69
2022/08/13 05:54:55;;;;;;;5.63;2.80;;;;;;;19.05;83.30;101363.53;4993617;28;20471;-72
2022/08/13 05:57:22;;;;;;;7.57;3.30;;;;;;;19.16;82.70;101370.97;4993658;28;20425;-70
2022/08/13 06:05:16;;;;;;;4.80;2.60;;;;;;;19.64;80.15;101372.22;4993439;28;20452;-66
2022/08/13 06:07:44;;;;;;;8.30;2.80;;;;;;;19.82;80.37;101375.53;4993751;28;20429;-66
2022/08/13 06:10:12;;;;;;;6.43;2.80;;;;;;;19.98;79.73;101374.88;4997164;28;20451;-68
2022/08/13 06:12:42;;;;;;;5.73;2.20;;;;;;;20.17;78.62;101373.09;4998354;28;20543;-66
2022/08/13 06:15:11;;;;;;;6.37;3.10;;;;;;;20.40;78.64;101376.13;4997209;28;20444;-67
2022/08/13 06:17:39;;;;;;;5.00;1.93;;;;;;;20.61;77.15;101366.94;4997042;28;20449;-67
2022/08/13 06:20:07;;;;;;;6.03;2.77;;;;;;;20.83;76.88;101379.34;4996920;28;20481;-67
2022/08/13 06:22:34;;;;;;;4.80;2.33;;;;;;;21.05;76.04;101383.50;4996795;28;20471;-67
2022/08/13 06:25:06;;;;;;;4.70;2.40;;;;;;;21.23;76.69;101372.94;4996841;28;20449;-66
2022/08/13 06:27:34;;;;;;;6.77;3.40;;;;;;;21.37;76.15;101370.56;4996866;28;20529;-67
2022/08/13 06:30:01;;;;;;;4.47;2.33;;;;;;;21.51;74.79;101379.19;4996846;28;20449;-67
2022/08/13 06:32:31;;;;;;;4.60;2.20;;;;;;;21.66;74.11;101377.59;4996363;28;20970;-68
2022/08/13 06:34:58;;;;;;;4.27;2.43;;;;;;;21.79;72.56;101381.88;4996442;28;20938;-67
2022/08/13 06:37:26;;;;;;;5.07;2.50;;;;;;;21.90;73.40;101377.38;4996354;28;20930;-68
2022/08/13 06:39:56;;;;;;;4.00;2.20;;;;;;;21.99;74.21;101381.91;4996240;28;21055;-67
2022/08/13 06:42:23;;;;;;;5.17;2.37;;;;;;;22.06;74.96;101382.88;4996490;28;20465;-68
2022/08/13 06:44:53;;;;;;;4.53;2.30;;;;;;;22.13;73.79;101380.31;4996617;28;20440;-67
2022/08/13 06:47:19;;;;;;;5.13;2.80;;;;;;;22.16;73.79;101381.53;4996133;28;21016;-68
2022/08/13 06:49:46;;;;;;;4.60;2.33;;;;;;;22.23;74.10;101384.47;4996176;28;20856;-68
2022/08/13 06:52:12;;;;;;;5.27;2.67;;;;;;;22.32;74.00;101382.31;4996316;28;20838;-67
2022/08/13 06:54:39;;;;;;;5.03;2.30;;;;;;;22.41;74.18;101382.09;4996725;28;20836;-67
2022/08/13 06:57:06;;;;;;;4.00;2.00;;;;;;;22.48;73.75;101395.25;4996438;28;20444;-68
2022/08/13 06:59:34;;;;;;;3.60;2.13;;;;;;;22.53;73.26;101389.41;4995998;28;20492;-70
2022/08/13 07:02:03;;;;;;;3.60;1.90;;;;;;;22.57;73.65;101388.34;4996868;28;20502;-69
2022/08/13 07:04:30;;;;;;;7.93;2.47;;;;;;;22.62;72.70;101390.84;4996117;28;20452;-69
2022/08/13 07:06:57;;;;;;;4.43;2.13;;;;;;;22.69;73.10;101398.44;4995911;28;21000;-68
2022/08/13 07:09:24;;;;;;;4.40;2.20;;;;;;;22.76;73.60;101406.88;4996140;28;20441;-69
2022/08/13 07:11:51;;;;;;;3.43;2.10;;;;;;;22.83;74.38;101406.22;4995629;28;20475;-68
2022/08/13 07:14:18;;;;;;;4.23;2.43;;;;;;;22.87;73.90;101396.84;4995977;28;20448;-67
2022/08/13 07:16:45;;;;;;;4.27;2.20;;;;;;;22.98;73.28;101401.81;4996043;28;20445;-71
2022/08/13 07:19:14;;;;;;;5.83;2.23;;;;;;;23.08;73.46;101402.00;4995570;28;20444;-72
2022/08/13 07:21:42;;;;;;;4.13;2.00;;;;;;;23.21;71.72;101399.88;4995406;28;20488;-68
2022/08/13 07:24:09;;;;;;;3.97;2.07;;;;;;;23.37;69.84;101406.09;4995574;28;20452;-67
2022/08/13 07:26:37;;;;;;;4.20;2.10;;;;;;;23.53;68.68;101405.16;4995653;28;20440;-67
2022/08/13 07:29:06;;;;;;;4.10;2.33;;;;;;;23.70;68.60;101398.38;4995740;28;20445;-69
2022/08/13 07:31:39;;;;;;;4.40;2.40;;;;;;;23.84;68.26;101399.38;4995548;28;20476;-69
2022/08/13 07:34:06;;;;;;;4.60;2.30;;;;;;;23.98;68.27;101400.75;4996072;28;20433;-67
2022/08/13 07:36:37;;;;;;;4.17;2.13;;;;;;;24.09;68.17;101399.75;4995615;28;20515;-68
2022/08/13 07:39:08;;;;;;;4.30;2.37;;;;;;;24.19;67.63;101389.22;4995314;28;20425;-68
2022/08/13 07:41:41;;;;;;;3.30;1.70;;;;;;;24.27;67.20;101394.47;4995264;28;20491;-67
2022/08/13 07:44:12;;;;;;;4.10;2.53;;;;;;;24.33;67.93;101387.44;4995517;28;20457;-67
2022/08/13 07:46:42;;;;;;;4.20;2.30;;;;;;;24.39;68.25;101385.97;4995454;28;20429;-67
2022/08/13 07:49:11;;;;;;;5.87;2.37;;;;;;;24.45;67.13;101394.75;4995297;28;20449;-67
2022/08/13 07:51:42;;;;;;;5.77;2.97;;;;;;;24.47;63.79;101397.13;4995257;28;20882;-68
2022/08/13 07:54:09;;;;;;;3.40;1.97;;;;;;;24.55;63.75;101398.81;4995300;28;20957;-67
2022/08/13 07:56:36;;;;;;;3.73;1.90;;;;;;;24.69;64.27;101396.22;4995165;28;20444;-67
2022/08/13 07:59:06;;;;;;;5.60;2.57;;;;;;;24.81;63.67;101401.50;4994815;28;20813;-68
2022/08/13 08:01:36;;;;;;;3.40;1.80;;;;;;;24.96;64.02;101396.13;4994619;28;21033;-67
2022/08/13 08:04:04;;;;;;;3.93;2.03;;;;;;;25.02;64.50;101398.19;4994699;28;20457;-67
2022/08/13 08:06:32;;;;;;;5.30;2.93;;;;;;;25.04;63.39;101397.78;4994917;28;20484;-67
2022/08/13 08:09:00;;;;;;;5.40;2.10;;;;;;;25.07;64.25;101394.28;4994966;28;20460;-67
2022/08/13 08:14:11;;;;;;;4.30;2.20;;;;;;;24.87;63.31;101397.22;4994688;28;20497;-68
2022/08/13 08:16:42;;;;;;;4.70;2.50;;;;;;;24.99;64.20;101395.38;4995033;28;20504;-67
2022/08/13 08:19:08;;;;;;;7.83;2.20;;;;;;;25.08;64.06;101391.13;4994830;28;20437;-67
2022/08/13 08:21:36;;;;;;;4.27;2.20;;;;;;;25.16;63.87;101394.78;4994579;28;20493;-67
2022/08/13 08:24:04;;;;;;;4.13;2.07;;;;;;;25.22;64.74;101393.25;4994721;28;20456;-67
2022/08/13 08:26:33;;;;;;;3.40;2.13;;;;;;;25.33;65.32;101394.16;4994821;28;20455;-68
2022/08/13 08:29:03;;;;;;;4.40;2.53;;;;;;;25.46;64.98;101396.66;4994690;28;20503;-67
2022/08/13 08:31:31;;;;;;;4.50;2.23;;;;;;;25.54;66.08;101403.84;4993822;28;20503;-68
2022/08/13 08:34:00;;;;;;;4.33;2.57;;;;;;;25.59;64.97;101400.72;4994542;28;20449;-69
2022/08/13 08:36:28;;;;;;;4.30;2.30;;;;;;;25.65;63.64;101401.97;4994490;28;20798;-75
2022/08/13 08:44:32;;;;;;;4.90;2.93;;;;;;;25.54;64.83;101392.72;4994246;28;20412;-69
2022/08/13 08:47:00;;;;;;;3.50;2.00;;;;;;;25.51;65.59;101402.63;4994347;28;20445;-67
2022/08/13 08:49:28;;;;;;;8.80;2.57;;;;;;;25.48;64.51;101397.06;4993848;28;20453;-69
2022/08/13 08:51:55;;;;;;;4.23;2.13;;;;;;;25.48;63.99;101391.50;4994035;28;20465;-67
2022/08/13 08:54:23;;;;;;;4.40;2.17;;;;;;;25.48;65.01;101394.28;4994173;28;20441;-67
2022/08/13 08:56:54;;;;;;;3.70;1.70;;;;;;;25.50;64.42;101391.91;4993885;28;20953;-66
2022/08/13 08:59:21;;;;;;;4.10;2.53;;;;;;;25.56;64.53;101388.41;4993910;28;20444;-67
2022/08/13 09:01:51;;;;;;;4.67;2.33;;;;;;;25.69;64.39;101388.13;4993975;28;20497;-66
2022/08/13 09:04:20;;;;;;;10.97;2.40;;;;;;;25.85;63.85;101392.25;4994022;28;20496;-66
2022/08/13 09:06:48;;;;;;;3.40;2.03;;;;;;;26.08;64.47;101382.88;4993702;28;20535;-66
2022/08/13 09:09:16;;;;;;;4.40;2.40;;;;;;;26.29;61.91;101388.50;4994259;28;20449;-66
2022/08/13 09:11:43;;;;;;;3.97;1.90;;;;;;;26.45;61.65;101390.22;4994109;28;20487;-67
2022/08/13 09:14:13;;;;;;;4.60;2.40;;;;;;;26.63;60.87;101388.31;4994029;28;20457;-66
2022/08/13 09:16:40;;;;;;;3.30;1.90;;;;;;;26.74;61.35;101383.59;4993997;28;20897;-66
2022/08/13 09:19:07;;;;;;;6.03;2.97;;;;;;;26.84;60.23;101385.59;4993909;28;20468;-66
2022/08/13 09:21:40;;;;;;;4.90;2.30;;;;;;;26.95;58.46;101379.25;4993390;28;21017;-67
2022/08/13 09:24:07;;;;;;;3.70;2.07;;;;;;;27.12;58.42;101389.66;4993932;28;20429;-66
2022/08/13 09:26:33;;;;;;;5.30;2.60;;;;;;;27.27;60.12;101388.50;4993798;28;20453;-66
2022/08/13 09:29:01;;;;;;;4.33;1.90;;;;;;;27.34;57.42;101382.13;4993676;28;20451;-68
2022/08/13 09:31:29;;;;;;;3.60;2.33;;;;;;;27.41;56.53;101385.72;4993332;28;20981;-68
2022/08/13 09:33:56;;;;;;;4.90;2.40;;;;;;;27.60;58.18;101392.06;4993775;28;20453;-67
2022/08/13 09:36:24;;;;;;;4.37;2.40;;;;;;;27.64;55.75;101390.06;4993723;28;20456;-68
2022/08/13 09:38:51;;;;;;;4.43;2.83;;;;;;;27.65;56.88;101389.66;4993432;28;20479;-68
2022/08/13 09:41:25;;;;;;;4.20;2.30;;;;;;;27.69;56.82;101383.31;4993261;28;20998;-67
2022/08/13 09:43:56;;;;;;;5.47;2.73;;;;;;;27.80;57.67;101382.16;4997606;28;20429;-67
2022/08/13 09:46:24;;;;;;;6.50;3.00;;;;;;;27.90;57.64;101380.53;4997263;28;20977;-68
2022/08/13 09:48:54;;;;;;;8.40;3.57;;;;;;;28.01;56.90;101383.28;4997542;28;20499;-67
2022/08/13 09:51:21;;;;;;;3.90;2.40;;;;;;;28.17;57.40;101384.44;4997503;28;20475;-69
2022/08/13 09:53:47;;;;;;;6.80;3.03;;;;;;;28.24;57.93;101375.25;4997477;28;20445;-67
2022/08/13 09:56:17;;;;;;;5.53;3.00;;;;;;;28.29;54.84;101376.81;4997227;28;20437;-67
2022/08/13 09:58:46;;;;;;;4.53;2.80;;;;;;;28.30;55.82;101382.00;4997276;28;20496;-67
2022/08/13 10:01:13;;;;;;;5.80;3.30;;;;;;;28.38;56.24;101380.03;4997163;28;20484;-67
2022/08/13 10:03:41;;;;;;;5.00;3.00;;;;;;;28.38;56.10;101369.69;4997356;28;20445;-68
2022/08/13 10:06:10;;;;;;;5.80;3.00;;;;;;;28.32;56.00;101376.03;4997537;28;20468;-67
2022/08/13 10:08:37;;;;;;;4.93;2.67;;;;;;;28.21;55.63;101375.28;4997044;28;20954;-67
2022/08/13 10:11:04;;;;;;;5.50;2.77;;;;;;;28.07;56.07;101370.56;4996773;28;20479;-67
2022/08/13 10:13:31;;;;;;;5.10;2.93;;;;;;;27.83;54.60;101372.97;4996904;28;20445;-68
2022/08/13 10:15:57;;;;;;;5.30;2.60;;;;;;;27.83;56.00;101363.81;4997171;28;20518;-67
2022/08/13 10:18:31;;;;;;;5.40;2.83;;;;;;;27.87;56.61;101370.97;4997140;28;20448;-68
2022/08/13 10:20:58;;;;;;;5.30;3.27;;;;;;;27.85;56.06;101362.25;4996927;28;20583;-67
2022/08/13 10:23:26;;;;;;;4.60;2.87;;;;;;;27.94;56.38;101361.03;4996962;28;20448;-68
2022/08/13 10:25:53;;;;;;;7.00;2.67;;;;;;;28.03;55.00;101359.41;4996993;28;20450;-67
2022/08/13 10:28:21;;;;;;;4.90;2.70;;;;;;;28.10;55.39;101355.81;4996873;28;20452;-68
2022/08/13 10:30:48;;;;;;;4.37;2.90;;;;;;;28.07;55.17;101354.63;4996629;28;20993;-67
2022/08/13 10:33:16;;;;;;;4.80;2.60;;;;;;;28.10;56.71;101353.00;4996809;28;20451;-68
2022/08/13 10:35:42;;;;;;;4.63;2.93;;;;;;;28.03;56.78;101353.06;4996654;28;20495;-68
2022/08/13 10:38:14;;;;;;;5.73;3.20;;;;;;;27.99;57.16;101352.28;4996734;28;20445;-67
2022/08/13 10:40:42;;;;;;;5.80;3.60;;;;;;;27.90;55.37;101350.69;4996563;28;20453;-68
2022/08/13 10:43:08;;;;;;;4.00;2.57;;;;;;;27.79;56.06;101354.69;4996457;28;20453;-67
2022/08/13 10:45:35;;;;;;;5.33;2.53;;;;;;;27.74;55.31;101350.31;4996480;28;20465;-68
2022/08/13 10:48:02;;;;;;;5.37;2.80;;;;;;;27.74;56.03;101353.09;4996565;28;20460;-67
2022/08/13 10:50:30;;;;;;;6.93;3.00;;;;;;;27.71;55.85;101353.06;4996412;28;20453;-68
2022/08/13 10:52:57;;;;;;;4.43;2.60;;;;;;;27.75;55.36;101346.31;4996394;28;20799;-67
2022/08/13 10:55:24;;;;;;;4.50;2.40;;;;;;;27.67;54.67;101353.09;4995690;28;20441;-68
2022/08/13 10:57:52;;;;;;;6.40;3.30;;;;;;;27.72;54.46;101346.31;4995953;28;20441;-67
2022/08/13 11:00:19;;;;;;;3.80;1.87;;;;;;;27.64;54.52;101357.47;4996078;28;20453;-68
2022/08/13 11:02:50;;;;;;;4.87;2.90;;;;;;;27.68;54.12;101349.13;4996094;28;20485;-67
2022/08/13 11:05:22;;;;;;;5.43;2.67;;;;;;;27.63;55.03;101357.88;4996325;28;20430;-67
2022/08/13 11:07:50;;;;;;;4.30;2.60;;;;;;;27.62;56.23;101357.06;4995894;28;20895;-67
2022/08/13 11:10:18;;;;;;;5.13;2.90;;;;;;;27.65;57.04;101349.91;4995852;28;20793;-68
2022/08/13 11:12:50;;;;;;;4.30;2.73;;;;;;;27.72;58.34;101346.31;4996083;28;20524;-67
2022/08/13 11:15:20;;;;;;;3.60;2.47;;;;;;;27.65;59.06;101345.13;4995739;28;20918;-68
2022/08/13 11:17:48;;;;;;;3.90;2.30;;;;;;;27.60;59.14;101347.53;4996558;28;20807;-68
2022/08/13 11:20:18;;;;;;;4.07;2.47;;;;;;;27.49;58.93;101341.94;4995868;28;20448;-68
2022/08/13 11:22:45;;;;;;;4.50;2.70;;;;;;;27.39;59.73;101343.56;4995755;28;20482;-67
2022/08/13 11:25:11;;;;;;;4.40;2.47;;;;;;;27.32;59.91;101331.66;4995870;28;20445;-67
2022/08/13 11:27:38;;;;;;;5.83;2.80;;;;;;;27.20;59.87;101335.63;4995876;28;20452;-67
2022/08/13 11:30:05;;;;;;;5.23;2.90;;;;;;;27.11;60.13;101338.00;4995902;28;20444;-67
2022/08/13 11:32:33;;;;;;;4.23;2.30;;;;;;;27.01;59.71;101333.19;4995613;28;20829;-67
2022/08/13 11:35:00;;;;;;;5.93;3.30;;;;;;;26.96;60.00;101337.16;4995708;28;20449;-67
2022/08/13 11:37:26;;;;;;;4.43;2.50;;;;;;;26.98;59.27;101331.19;4995662;28;20441;-68
2022/08/13 11:39:52;;;;;;;5.20;2.80;;;;;;;27.03;58.89;101334.38;4995556;28;20860;-68
2022/08/13 11:42:19;;;;;;;5.57;2.93;;;;;;;27.18;59.69;101337.97;4995119;28;21033;-67
2022/08/13 11:44:45;;;;;;;6.87;2.80;;;;;;;27.30;59.62;101339.59;4995551;28;20445;-72
2022/08/13 11:47:12;;;;;;;4.20;2.20;;;;;;;27.50;59.89;101337.22;4995477;28;20441;-67